ENFB

Oslo, Fornebu Airport

Oslo, Norway
METAR ENFB 181550Z AUTO 20026KT 3400NDV -RA BR BKN008/// 07/07 Q1017 W///S4
Observed Flight Rules
Dec-18 @ 15:50 UTC (37 minutes ago)
Wind Clouds Conditions
200° at 26 knots
  • Broken at 800' AGL
  • Light Rain
  • Mist
Temperatures Readings
Current 7°C / 45°F
Dewpoint 7°C / 45°F
Humidity 100%
Altimeter 30.03" Hg
Pressure 1017 hPa
Elevation 10
METAR ENFB 181550Z AUTO 20026KT 3400NDV -RA BR BKN008/// 07/07 Q1017 W///S4
Observed Flight Rules
Dec-18 @ 15:50 UTC
(37 minutes ago)
Wind
200° at 26 knots
Clouds
  • Broken at 800' AGL
Conditions
  • Light Rain
  • Mist
Temperature Dewpoint
7°C / 45°F 7°C / 45°F
Humidity Altimeter Pressure
100% 30.03" Hg 1017 hPa